Time;durP1;ratioP1;P1;durP2;ratioP2;P2;SDS_P1;SDS_P2;PMS_P1;PMS_P2;Temp;Humidity;BMP_temperature;BMP_pressure;BME280_temperature;BME280_humidity;BME280_pressure;Samples;Min_cycle;Max_cycle;Signal;HPM_P1;HPM_P2
2021/12/12 00:00:03;;;;;;;73.78;30.08;;;2.60;99.90;;;;;;5034337;28;20045;-72
2021/12/12 00:02:45;;;;;;;63.42;25.83;;;2.60;99.90;;;;;;5033971;28;20037;-75
2021/12/12 00:05:16;;;;;;;67.03;27.40;;;2.70;99.90;;;;;;5033989;28;20397;-75
2021/12/12 00:07:43;;;;;;;64.22;25.45;;;2.70;99.90;;;;;;5033809;28;20102;-74
2021/12/12 00:10:18;;;;;;;61.40;27.23;;;2.70;99.90;;;;;;5032650;28;20053;-75
2021/12/12 00:12:49;;;;;;;64.85;27.90;;;2.70;99.90;;;;;;5032809;28;20045;-78
2021/12/12 00:15:17;;;;;;;68.85;29.15;;;2.70;99.90;;;;;;5049197;28;20098;-80
2021/12/12 00:17:43;;;;;;;65.38;28.15;;;2.70;99.90;;;;;;5053339;28;20502;-76
2021/12/12 00:20:12;;;;;;;74.80;27.65;;;2.70;99.90;;;;;;5053494;28;20404;-75
2021/12/12 00:22:38;;;;;;;64.18;27.98;;;2.70;99.90;;;;;;5053773;28;20182;-73
2021/12/12 00:25:06;;;;;;;63.13;27.67;;;2.80;99.90;;;;;;5035944;28;20124;-76
2021/12/12 00:27:32;;;;;;;65.97;28.42;;;2.80;99.90;;;;;;5036441;28;20055;-78
2021/12/12 00:30:02;;;;;;;66.35;26.77;;;2.80;99.90;;;;;;5053791;28;20053;-80
2021/12/12 00:32:31;;;;;;;67.00;27.13;;;2.80;99.90;;;;;;5035957;28;20102;-77
2021/12/12 00:35:00;;;;;;;67.15;27.63;;;3.70;99.90;;;;;;5053473;28;20051;-76
2021/12/12 00:37:28;;;;;;;62.97;26.42;;;2.90;99.90;;;;;;5053343;28;20045;-75
2021/12/12 00:39:58;;;;;;;70.65;28.05;;;3.60;99.90;;;;;;5052668;28;20037;-76
2021/12/12 00:42:27;;;;;;;70.18;28.88;;;2.90;99.90;;;;;;5053305;28;20040;-81
2021/12/12 00:44:56;;;;;;;64.65;26.05;;;2.90;99.90;;;;;;5019064;28;20065;-77
2021/12/12 00:47:23;;;;;;;74.10;29.63;;;2.90;99.90;;;;;;5035302;28;20575;-80
2021/12/12 00:49:50;;;;;;;72.57;27.60;;;3.30;99.90;;;;;;5052562;28;20080;-78
2021/12/12 00:52:18;;;;;;;69.85;28.63;;;2.90;99.90;;;;;;5053019;28;20049;-75
2021/12/12 00:54:46;;;;;;;65.43;29.17;;;2.90;99.90;;;;;;5053053;28;20095;-77
2021/12/12 00:57:15;;;;;;;66.10;27.13;;;3.20;99.90;;;;;;5053144;28;20040;-76
2021/12/12 00:59:44;;;;;;;72.13;28.30;;;2.90;99.90;;;;;;5035533;28;20116;-75
2021/12/12 01:02:16;;;;;;;64.10;26.55;;;3.00;99.90;;;;;;5052791;28;20053;-76
2021/12/12 01:04:45;;;;;;;65.05;28.33;;;2.90;99.90;;;;;;5052937;28;20427;-78
2021/12/12 01:07:18;;;;;;;56.08;25.05;;;3.70;99.90;;;;;;5035543;28;20045;-79
2021/12/12 01:09:53;;;;;;;57.22;24.55;;;3.40;99.90;;;;;;5035165;28;20131;-77
2021/12/12 01:12:23;;;;;;;60.17;28.02;;;3.10;99.90;;;;;;5035148;28;20043;-76
2021/12/12 01:15:01;;;;;;;56.28;24.90;;;2.90;99.90;;;;;;5052585;28;20053;-76
2021/12/12 01:17:37;;;;;;;59.60;26.15;;;3.60;99.90;;;;;;5052840;28;20095;-77
2021/12/12 01:20:10;;;;;;;58.50;26.45;;;3.00;99.90;;;;;;5017992;28;20562;-75
2021/12/12 01:22:37;;;;;;;59.95;24.95;;;3.00;99.90;;;;;;5034780;28;20080;-76
2021/12/12 01:25:19;;;;;;;54.40;24.83;;;3.10;99.90;;;;;;5052542;28;20400;-75
2021/12/12 01:27:45;;;;;;;60.20;25.87;;;3.00;99.90;;;;;;5052898;28;20044;-74
2021/12/12 01:30:13;;;;;;;58.40;26.67;;;3.00;99.90;;;;;;5034359;28;20374;-78
2021/12/12 01:32:39;;;;;;;48.72;22.88;;;3.00;99.90;;;;;;5034621;28;20053;-77
2021/12/12 01:35:14;;;;;;;54.88;24.60;;;3.00;99.90;;;;;;5052803;28;20077;-74
2021/12/12 01:37:43;;;;;;;65.85;26.10;;;3.00;99.90;;;;;;5034425;28;20080;-74
2021/12/12 01:40:20;;;;;;;55.15;25.83;;;3.00;99.90;;;;;;5052598;28;20087;-78
2021/12/12 01:43:03;;;;;;;51.95;24.55;;;3.00;99.90;;;;;;5052730;28;20049;-72
2021/12/12 01:45:39;;;;;;;49.88;22.25;;;3.00;99.90;;;;;;5052616;28;20396;-76
2021/12/12 01:48:14;;;;;;;59.17;25.60;;;3.00;99.90;;;;;;5035146;28;20206;-75
2021/12/12 01:50:46;;;;;;;50.17;22.83;;;3.10;99.90;;;;;;5018044;28;20092;-76
2021/12/12 01:53:14;;;;;;;48.22;24.45;;;3.10;99.90;;;;;;5055985;28;20079;-75
2021/12/12 01:56:00;;;;;;;55.03;24.27;;;3.10;99.90;;;;;;5056547;28;20053;-80
2021/12/12 01:58:31;;;;;;;58.70;26.33;;;3.10;99.90;;;;;;5038199;28;20053;-74
2021/12/12 02:01:08;;;;;;;50.42;22.83;;;3.10;99.90;;;;;;5037871;28;20118;-76
2021/12/12 02:03:38;;;;;;;58.30;23.60;;;3.10;99.90;;;;;;5038288;28;20045;-75
2021/12/12 02:06:08;;;;;;;49.65;22.35;;;3.10;99.90;;;;;;5038612;28;20500;-72
2021/12/12 02:08:35;;;;;;;53.80;24.73;;;3.10;99.90;;;;;;5036813;28;20162;-76
2021/12/12 02:11:06;;;;;;;48.60;19.98;;;3.10;99.90;;;;;;5055893;28;20416;-75
2021/12/12 02:13:38;;;;;;;50.92;21.65;;;3.20;99.90;;;;;;5055747;28;20049;-74
2021/12/12 02:16:04;;;;;;;52.50;21.65;;;3.20;99.90;;;;;;5038136;28;20507;-75
2021/12/12 02:18:35;;;;;;;42.55;21.23;;;3.20;99.90;;;;;;5037660;28;20057;-75
2021/12/12 02:21:15;;;;;;;48.45;21.73;;;3.20;99.90;;;;;;5055808;28;20496;-74
2021/12/12 02:24:20;;;;;;;44.92;21.58;;;3.20;99.90;;;;;;5055457;28;20138;-74
2021/12/12 02:35:18;;;;;;;48.67;20.05;;;3.20;99.90;;;;;;5037951;28;20431;-73
2021/12/12 02:37:45;;;;;;;45.70;20.48;;;3.20;99.90;;;;;;5055623;28;20049;-74
2021/12/12 02:40:22;;;;;;;49.83;21.83;;;3.20;99.90;;;;;;5054985;28;20056;-73
2021/12/12 02:42:48;;;;;;;49.83;21.30;;;3.20;99.90;;;;;;5055362;28;20044;-73
2021/12/12 02:45:16;;;;;;;44.63;19.83;;;3.20;99.90;;;;;;5055391;28;20037;-73
2021/12/12 02:47:45;;;;;;;49.20;19.35;;;3.20;99.90;;;;;;5055622;28;20041;-73
2021/12/12 02:50:18;;;;;;;43.20;19.45;;;3.20;99.90;;;;;;5037525;28;20110;-75
2021/12/12 02:52:49;;;;;;;55.25;22.45;;;3.20;99.90;;;;;;5055404;28;20124;-74
2021/12/12 02:55:22;;;;;;;44.42;19.70;;;3.30;99.90;;;;;;5036935;28;20049;-73
2021/12/12 02:57:47;;;;;;;50.90;21.77;;;3.30;99.90;;;;;;5054969;28;20480;-73
2021/12/12 03:00:17;;;;;;;44.35;19.27;;;3.30;99.90;;;;;;5055280;28;20055;-73
2021/12/12 03:02:46;;;;;;;43.63;20.38;;;3.30;99.90;;;;;;5036395;28;20057;-73
2021/12/12 03:05:18;;;;;;;44.22;21.30;;;3.30;99.90;;;;;;5055229;28;20045;-80
2021/12/12 03:07:45;;;;;;;42.45;19.42;;;4.00;99.90;;;;;;5054956;28;20489;-75
2021/12/12 03:10:18;;;;;;;40.53;19.67;;;3.40;99.90;;;;;;5054872;28;20501;-84
2021/12/12 03:12:44;;;;;;;41.25;18.23;;;3.30;99.90;;;;;;5054600;28;20167;-83
2021/12/12 03:15:15;;;;;;;46.78;18.98;;;3.40;99.90;;;;;;5054780;28;20081;-76
2021/12/12 03:17:42;;;;;;;41.05;19.60;;;3.30;99.90;;;;;;5055096;28;20049;-83
2021/12/12 03:20:23;;;;;;;50.33;19.42;;;3.30;99.90;;;;;;5054731;28;20080;-81
2021/12/12 03:22:54;;;;;;;44.95;18.52;;;3.40;99.90;;;;;;5036427;28;20136;-78
2021/12/12 03:25:21;;;;;;;43.30;18.40;;;3.40;99.90;;;;;;5054615;28;20049;-82
2021/12/12 03:27:47;;;;;;;41.30;19.58;;;3.40;99.90;;;;;;5036294;28;20063;-80
2021/12/12 03:30:14;;;;;;;41.70;18.55;;;3.40;99.90;;;;;;5054667;28;20045;-83
2021/12/12 03:32:39;;;;;;;41.42;17.50;;;3.40;99.90;;;;;;5054571;28;20044;-84
2021/12/12 03:35:06;;;;;;;44.53;18.83;;;3.40;99.90;;;;;;5054546;28;20048;-74
2021/12/12 03:37:33;;;;;;;40.60;18.00;;;3.40;99.90;;;;;;5036613;28;20404;-81
2021/12/12 03:40:08;;;;;;;49.50;19.23;;;3.40;99.90;;;;;;5054882;28;20190;-83
2021/12/12 03:42:34;;;;;;;39.45;18.60;;;3.40;99.90;;;;;;5054209;28;20056;-78
2021/12/12 03:45:00;;;;;;;41.65;18.33;;;3.40;99.90;;;;;;5036076;28;20057;-80
2021/12/12 03:47:38;;;;;;;39.00;18.77;;;3.70;99.90;;;;;;5036606;28;20051;-76
2021/12/12 03:50:10;;;;;;;39.33;16.83;;;3.40;99.90;;;;;;5054180;28;20044;-76
2021/12/12 03:52:36;;;;;;;42.17;17.67;;;3.40;99.90;;;;;;5054179;28;20492;-79
2021/12/12 03:55:03;;;;;;;41.03;19.42;;;3.40;99.90;;;;;;5037507;28;20052;-77
2021/12/12 03:57:30;;;;;;;42.17;17.92;;;3.40;99.90;;;;;;5054367;28;20049;-75
2021/12/12 03:59:56;;;;;;;43.35;17.58;;;3.50;99.90;;;;;;5053646;28;20037;-80
2021/12/12 04:02:21;;;;;;;37.80;17.70;;;3.40;99.90;;;;;;5053907;28;20045;-79
2021/12/12 04:04:48;;;;;;;38.25;17.67;;;3.50;99.90;;;;;;5053886;28;20057;-81
2021/12/12 04:07:21;;;;;;;40.60;17.55;;;3.40;99.90;;;;;;5036384;28;20397;-75
2021/12/12 04:09:47;;;;;;;44.20;18.08;;;3.50;99.90;;;;;;5053935;28;20509;-82
2021/12/12 04:12:15;;;;;;;44.38;18.88;;;3.50;99.90;;;;;;5053945;28;20037;-73
2021/12/12 04:14:42;;;;;;;39.63;18.52;;;3.50;99.90;;;;;;5053227;28;20053;-76
2021/12/12 04:17:13;;;;;;;38.95;17.92;;;3.50;99.90;;;;;;5035810;28;20063;-73
2021/12/12 04:19:44;;;;;;;37.38;16.83;;;3.50;99.90;;;;;;5053658;28;20068;-82
2021/12/12 04:22:11;;;;;;;37.05;17.67;;;3.50;99.90;;;;;;5053681;28;20446;-84
2021/12/12 04:24:40;;;;;;;39.55;18.60;;;3.50;99.90;;;;;;5035638;28;20086;-78
2021/12/12 04:27:07;;;;;;;38.03;17.02;;;3.50;99.90;;;;;;5035708;28;20072;-80
2021/12/12 04:29:36;;;;;;;33.95;17.27;;;3.50;99.90;;;;;;5057122;28;20084;-79
2021/12/12 04:32:12;;;;;;;40.47;17.10;;;3.60;99.90;;;;;;5038848;28;20092;-78
2021/12/12 04:34:41;;;;;;;42.17;16.23;;;3.60;99.90;;;;;;5058596;28;20064;-77
2021/12/12 04:37:07;;;;;;;40.40;17.73;;;3.60;99.90;;;;;;5057886;28;20045;-78
2021/12/12 04:39:37;;;;;;;35.25;16.05;;;3.60;99.90;;;;;;5053462;28;20072;-73
2021/12/12 04:42:11;;;;;;;38.92;14.00;;;3.60;99.90;;;;;;5035396;28;20084;-78
2021/12/12 04:44:40;;;;;;;33.72;15.68;;;3.60;99.90;;;;;;5053269;28;20091;-74
2021/12/12 04:50:05;;;;;;;31.08;14.48;;;3.60;99.90;;;;;;5053269;28;20084;-73
2021/12/12 04:52:58;;;;;;;33.05;16.10;;;3.60;99.90;;;;;;5035596;28;20431;-74
2021/12/12 04:55:44;;;;;;;35.35;15.77;;;3.70;99.90;;;;;;5035303;28;20481;-73
2021/12/12 04:58:16;;;;;;;40.78;14.80;;;3.70;99.90;;;;;;5035234;28;20045;-73
2021/12/12 05:00:46;;;;;;;37.58;14.65;;;3.70;99.90;;;;;;5053124;28;20052;-73
2021/12/12 05:03:25;;;;;;;32.40;15.20;;;4.40;99.90;;;;;;5052497;28;20098;-73
2021/12/12 05:06:03;;;;;;;34.55;14.48;;;3.70;99.90;;;;;;5052878;28;20103;-73
2021/12/12 05:08:37;;;;;;;28.45;14.95;;;3.70;99.90;;;;;;5035379;28;20182;-73
2021/12/12 05:11:18;;;;;;;29.92;13.52;;;3.70;99.90;;;;;;5053012;28;20048;-74
2021/12/12 05:13:52;;;;;;;32.38;14.48;;;4.50;99.90;;;;;;5052797;28;20052;-73
2021/12/12 05:16:30;;;;;;;35.38;13.57;;;3.70;99.90;;;;;;5035019;28;20057;-72
2021/12/12 05:19:05;;;;;;;31.83;13.80;;;3.70;99.90;;;;;;5052402;28;20041;-74
2021/12/12 05:21:36;;;;;;;31.00;13.95;;;3.70;99.90;;;;;;5052789;28;20052;-73
2021/12/12 05:24:07;;;;;;;28.48;12.55;;;3.80;99.90;;;;;;5052941;28;20441;-74
2021/12/12 05:26:46;;;;;;;34.08;13.10;;;3.80;99.90;;;;;;5054229;28;20473;-73
2021/12/12 05:29:19;;;;;;;25.90;11.10;;;3.80;99.90;;;;;;5057051;28;20044;-73
2021/12/12 05:31:48;;;;;;;30.55;13.18;;;3.90;99.90;;;;;;5056935;28;20064;-74
2021/12/12 05:34:17;;;;;;;30.65;11.43;;;3.90;99.90;;;;;;5056483;28;20094;-73
2021/12/12 05:36:44;;;;;;;27.25;11.38;;;3.90;99.90;;;;;;5056699;28;20377;-72
2021/12/12 05:39:10;;;;;;;25.80;11.73;;;4.00;99.90;;;;;;5056673;28;20049;-73
2021/12/12 05:41:37;;;;;;;25.67;11.70;;;4.00;99.90;;;;;;5056493;28;20052;-73
2021/12/12 05:44:03;;;;;;;20.88;10.10;;;4.00;99.90;;;;;;5056580;28;20055;-73
2021/12/12 05:46:29;;;;;;;20.83;10.55;;;4.10;99.90;;;;;;5038917;28;20053;-74
2021/12/12 05:48:55;;;;;;;19.52;10.23;;;4.10;99.90;;;;;;5056422;28;20098;-74
2021/12/12 05:51:23;;;;;;;22.80;11.02;;;4.20;99.90;;;;;;5038165;28;20530;-73
2021/12/12 05:53:51;;;;;;;24.63;11.20;;;4.10;99.90;;;;;;5056477;28;20041;-73
2021/12/12 05:56:20;;;;;;;22.38;10.30;;;4.20;99.90;;;;;;5038827;28;20103;-73
2021/12/12 05:58:46;;;;;;;21.95;9.95;;;4.20;99.90;;;;;;5056515;28;20041;-74
2021/12/12 06:01:12;;;;;;;20.60;10.05;;;4.40;99.90;;;;;;5038618;28;20098;-75
2021/12/12 06:03:42;;;;;;;19.45;8.95;;;4.20;99.90;;;;;;5056298;28;20056;-71
2021/12/12 06:06:12;;;;;;;18.13;8.68;;;4.30;99.90;;;;;;5055829;28;20045;-75
2021/12/12 06:08:40;;;;;;;19.05;9.25;;;4.30;99.90;;;;;;5056172;28;20088;-73
2021/12/12 06:11:06;;;;;;;22.27;10.20;;;4.30;99.90;;;;;;5056175;28;20048;-76
2021/12/12 06:13:37;;;;;;;24.88;11.73;;;4.30;99.90;;;;;;5038300;28;20439;-79
2021/12/12 06:16:03;;;;;;;18.25;9.77;;;4.30;99.90;;;;;;5037986;28;20103;-77
2021/12/12 06:18:32;;;;;;;19.50;11.00;;;4.30;99.90;;;;;;5056109;28;20049;-73
2021/12/12 06:20:59;;;;;;;25.40;11.07;;;4.30;99.90;;;;;;5055635;28;20397;-78
2021/12/12 06:23:26;;;;;;;23.08;10.63;;;4.30;99.90;;;;;;5055522;28;20110;-84
2021/12/12 06:25:51;;;;;;;21.83;11.00;;;4.30;99.90;;;;;;5055709;28;20087;-82
2021/12/12 06:28:30;;;;;;;20.63;10.38;;;4.30;99.90;;;;;;5037944;28;20084;-81
2021/12/12 06:30:56;;;;;;;19.10;8.82;;;4.90;99.90;;;;;;5055631;28;20489;-74
2021/12/12 06:33:23;;;;;;;17.90;10.27;;;4.30;99.90;;;;;;5055650;28;20590;-81
2021/12/12 06:35:49;;;;;;;18.50;10.27;;;4.80;99.90;;;;;;5055510;28;20134;-73
2021/12/12 06:38:16;;;;;;;18.73;10.23;;;5.00;99.90;;;;;;5053673;28;20097;-81
2021/12/12 06:40:43;;;;;;;19.77;9.50;;;5.20;99.90;;;;;;5037516;28;20051;-73
2021/12/12 06:43:12;;;;;;;21.02;9.52;;;4.80;99.90;;;;;;5055090;28;20052;-79
2021/12/12 06:45:38;;;;;;;19.42;9.68;;;4.40;99.90;;;;;;5055546;28;20033;-74
2021/12/12 06:48:07;;;;;;;16.95;9.02;;;4.40;99.90;;;;;;5037217;28;20049;-79
2021/12/12 06:50:35;;;;;;;18.05;9.00;;;4.40;99.90;;;;;;5055220;28;20125;-74
2021/12/12 06:53:02;;;;;;;17.95;9.55;;;5.10;99.90;;;;;;5054719;28;20048;-78
2021/12/12 06:55:29;;;;;;;15.52;8.25;;;4.40;99.90;;;;;;5037298;28;20527;-82
2021/12/12 06:57:55;;;;;;;18.15;8.52;;;5.40;99.90;;;;;;5037413;28;20507;-81
2021/12/12 07:00:23;;;;;;;15.65;8.40;;;4.40;99.90;;;;;;5036996;28;20036;-81
2021/12/12 07:02:49;;;;;;;17.08;9.15;;;4.40;99.90;;;;;;5037296;28;20091;-77
2021/12/12 07:05:19;;;;;;;18.35;8.75;;;4.40;99.90;;;;;;5037405;28;20045;-86
2021/12/12 07:07:46;;;;;;;16.83;8.63;;;4.50;99.90;;;;;;5055106;28;20049;-79
2021/12/12 07:10:16;;;;;;;16.60;8.63;;;5.00;99.90;;;;;;5036573;28;20614;-76
2021/12/12 07:12:44;;;;;;;16.38;8.23;;;4.40;99.90;;;;;;5055124;28;20059;-81
2021/12/12 07:15:13;;;;;;;16.92;8.30;;;5.10;99.90;;;;;;5054824;28;20056;-79
2021/12/12 07:17:40;;;;;;;16.83;8.40;;;5.30;99.90;;;;;;5037138;28;20053;-76
2021/12/12 07:20:08;;;;;;;15.32;7.78;;;4.50;99.90;;;;;;5054694;28;20041;-77
2021/12/12 07:22:34;;;;;;;16.40;8.73;;;4.40;99.90;;;;;;5054495;28;20037;-80
2021/12/12 07:25:02;;;;;;;10.32;5.20;;;4.90;99.90;;;;;;5054405;28;20052;-78
2021/12/12 07:27:28;;;;;;;13.27;6.38;;;4.50;99.90;;;;;;5037037;28;20056;-81
2021/12/12 07:29:56;;;;;;;12.52;5.25;;;4.50;99.90;;;;;;5036581;28;20064;-82
2021/12/12 07:32:22;;;;;;;12.70;6.00;;;4.50;99.90;;;;;;5054479;28;20044;-74
2021/12/12 07:34:48;;;;;;;15.27;5.93;;;4.50;99.90;;;;;;5054417;28;20045;-72
2021/12/12 07:37:14;;;;;;;14.13;5.47;;;5.00;99.90;;;;;;5054379;28;20048;-78
2021/12/12 07:39:42;;;;;;;12.02;5.47;;;4.50;99.90;;;;;;5054585;28;20052;-76
2021/12/12 07:42:09;;;;;;;11.02;5.05;;;4.50;99.90;;;;;;5054085;28;20171;-74
2021/12/12 07:44:38;;;;;;;12.75;5.25;;;4.60;99.90;;;;;;5036594;28;20501;-72
2021/12/12 07:47:05;;;;;;;10.75;5.10;;;4.60;99.90;;;;;;5054339;28;20051;-73
2021/12/12 07:49:35;;;;;;;10.20;4.60;;;4.60;99.90;;;;;;5036625;28;20056;-74
2021/12/12 07:52:04;;;;;;;11.38;5.05;;;4.80;99.90;;;;;;5054402;28;20041;-73
2021/12/12 07:54:31;;;;;;;11.82;4.90;;;4.60;99.90;;;;;;5054119;28;20107;-74
2021/12/12 07:56:57;;;;;;;15.85;5.57;;;4.60;99.90;;;;;;5053586;28;20044;-72
2021/12/12 07:59:23;;;;;;;11.10;4.97;;;4.80;99.90;;;;;;5054015;28;20072;-74
2021/12/12 08:01:51;;;;;;;12.02;5.28;;;4.70;99.90;;;;;;5036131;28;20418;-73
2021/12/12 08:04:21;;;;;;;13.70;5.40;;;4.70;99.90;;;;;;5053726;28;20053;-73
2021/12/12 08:06:47;;;;;;;10.57;4.88;;;4.70;99.90;;;;;;5054125;28;20086;-73
2021/12/12 08:09:14;;;;;;;10.90;4.70;;;4.70;99.90;;;;;;5054020;28;20049;-70
2021/12/12 08:11:41;;;;;;;12.65;5.53;;;4.80;99.90;;;;;;5053544;28;20489;-74
2021/12/12 08:14:12;;;;;;;10.35;4.82;;;5.00;99.90;;;;;;5053336;28;20393;-74
2021/12/12 08:16:38;;;;;;;12.73;5.10;;;4.80;99.90;;;;;;5053572;28;20056;-73
2021/12/12 08:19:05;;;;;;;11.07;4.82;;;4.80;99.90;;;;;;5035619;28;20045;-73
2021/12/12 08:21:33;;;;;;;14.15;6.18;;;4.90;99.90;;;;;;5053618;28;20041;-73
2021/12/12 08:24:08;;;;;;;15.65;6.25;;;4.90;99.90;;;;;;5035706;28;20060;-73
2021/12/12 08:26:35;;;;;;;11.15;5.40;;;4.90;99.90;;;;;;5052507;28;20568;-73
2021/12/12 08:29:05;;;;;;;13.15;5.68;;;4.90;99.90;;;;;;5035112;28;20068;-70
2021/12/12 08:31:31;;;;;;;14.18;6.20;;;5.00;99.90;;;;;;5035664;28;20033;-71
2021/12/12 08:33:57;;;;;;;13.02;6.15;;;5.00;99.90;;;;;;5053836;28;20366;-86
2021/12/12 08:36:23;;;;;;;14.45;5.82;;;5.00;99.90;;;;;;5019351;28;20063;-82
2021/12/12 08:38:49;;;;;;;11.95;5.57;;;5.00;99.90;;;;;;5035615;28;20099;-84
2021/12/12 08:41:15;;;;;;;14.77;6.75;;;5.60;99.90;;;;;;5053552;28;20040;-85
2021/12/12 08:43:43;;;;;;;12.45;5.63;;;5.10;99.90;;;;;;5052954;28;20084;-83
2021/12/12 08:46:13;;;;;;;12.15;5.68;;;5.10;99.90;;;;;;5052832;28;20091;-84
2021/12/12 08:48:43;;;;;;;14.70;6.70;;;5.10;99.90;;;;;;5034885;28;20088;-81
2021/12/12 08:51:17;;;;;;;12.68;5.90;;;5.10;99.90;;;;;;5053134;28;20044;-84
2021/12/12 08:53:45;;;;;;;13.82;6.05;;;5.20;99.90;;;;;;5053303;28;20049;-85
2021/12/12 08:56:19;;;;;;;16.70;6.50;;;5.20;99.90;;;;;;5053103;28;20128;-73
2021/12/12 08:58:46;;;;;;;17.33;9.35;;;5.20;99.90;;;;;;5052973;28;20075;-73
2021/12/12 09:01:15;;;;;;;16.30;8.48;;;5.30;99.90;;;;;;5051913;28;20400;-73
2021/12/12 09:03:51;;;;;;;18.55;8.80;;;5.20;99.90;;;;;;5052938;28;20049;-73
2021/12/12 09:06:19;;;;;;;15.77;8.88;;;5.30;99.90;;;;;;5053152;28;20056;-74
2021/12/12 09:09:21;;;;;;;17.63;9.35;;;5.30;99.90;;;;;;5035693;28;20105;-77
2021/12/12 09:11:54;;;;;;;17.35;9.10;;;5.30;99.90;;;;;;4956275;28;20047;-77
2021/12/12 09:14:49;;;;;;;17.05;8.93;;;5.40;99.90;;;;;;4971459;28;20139;-72
2021/12/12 09:17:28;;;;;;;15.75;8.20;;;5.40;99.90;;;;;;4971986;28;20553;-80
2021/12/12 09:20:04;;;;;;;17.75;8.70;;;5.40;99.90;;;;;;4956345;28;20057;-77
2021/12/12 09:22:37;;;;;;;16.48;8.43;;;5.80;99.90;;;;;;4972195;28;20062;-78
2021/12/12 09:25:15;;;;;;;18.70;8.75;;;5.40;99.90;;;;;;4972134;28;20050;-75
2021/12/12 09:27:52;;;;;;;17.75;8.65;;;5.40;99.90;;;;;;4955579;28;20054;-73
2021/12/12 09:30:22;;;;;;;15.45;8.73;;;5.50;99.90;;;;;;4971992;28;20051;-80
2021/12/12 09:32:50;;;;;;;21.55;9.85;;;6.10;99.90;;;;;;4971479;28;20531;-74
2021/12/12 09:35:27;;;;;;;17.50;8.70;;;5.50;99.90;;;;;;4972059;28;20069;-76
2021/12/12 09:38:09;;;;;;;20.40;9.07;;;5.80;99.90;;;;;;4955976;28;20118;-75
2021/12/12 09:40:52;;;;;;;17.58;9.10;;;5.50;99.90;;;;;;4955874;28;20146;-76
2021/12/12 09:43:43;;;;;;;18.88;9.23;;;5.60;99.90;;;;;;4955547;28;20198;-81
2021/12/12 09:46:30;;;;;;;19.65;9.88;;;5.60;99.90;;;;;;4972009;28;20054;-80
2021/12/12 09:52:17;;;;;;;22.42;9.77;;;5.60;99.90;;;;;;5052789;28;20048;-82
2021/12/12 09:55:13;;;;;;;19.55;9.70;;;5.60;99.90;;;;;;5052611;28;20128;-79
2021/12/12 09:57:59;;;;;;;17.73;9.38;;;5.70;99.90;;;;;;5051793;28;20118;-76
2021/12/12 10:00:52;;;;;;;20.23;10.00;;;5.70;99.90;;;;;;5034670;28;20052;-75
2021/12/12 10:03:25;;;;;;;;;;;5.80;99.90;;;;;;5052452;28;20060;-78
2021/12/12 10:06:32;;;;;;;19.80;9.63;;;5.70;99.90;;;;;;5034698;28;19927;-73
2021/12/12 10:09:15;;;;;;;20.50;9.65;;;5.80;99.90;;;;;;4955694;28;20047;-73
2021/12/12 10:12:22;;;;;;;25.63;11.15;;;5.90;99.90;;;;;;4971602;28;20102;-76
2021/12/12 10:14:54;;;;;;;18.98;9.95;;;5.90;99.90;;;;;;4936685;29;20051;-77
2021/12/12 10:17:34;;;;;;;;;;;6.10;99.90;;;;;;4937322;29;20066;-72
2021/12/12 10:20:02;;;;;;;18.92;8.90;;;5.90;99.90;;;;;;4935744;29;20031;-77
2021/12/12 10:22:54;;;;;;;17.75;9.13;;;6.60;99.90;;;;;;4936347;29;20537;-73
2021/12/12 10:25:28;;;;;;;21.92;10.43;;;6.00;99.90;;;;;;4920618;29;20475;-72
2021/12/12 10:28:31;;;;;;;20.67;10.18;;;6.10;99.90;;;;;;4921282;29;20062;-76
2021/12/12 10:31:18;;;;;;;19.50;9.63;;;6.10;99.90;;;;;;4860948;29;20093;-75
2021/12/12 10:33:46;;;;;;;22.42;9.52;;;6.50;99.90;;;;;;4869295;29;20517;-73
2021/12/12 10:36:29;;;;;;;20.75;10.23;;;6.20;99.90;;;;;;4868643;29;20053;-74
2021/12/12 10:39:08;;;;;;;21.25;10.90;;;6.20;99.90;;;;;;4863262;29;20092;-75
2021/12/12 10:41:40;;;;;;;21.02;10.60;;;6.30;99.90;;;;;;4922195;29;20105;-75
2021/12/12 10:44:21;;;;;;;22.55;11.38;;;6.30;99.90;;;;;;4917142;29;20136;-72
2021/12/12 10:47:08;;;;;;;24.80;11.70;;;6.80;99.90;;;;;;4974702;28;20489;-75
2021/12/12 10:49:43;;;;;;;24.00;11.65;;;6.40;99.90;;;;;;4974705;28;20046;-79
2021/12/12 10:52:27;;;;;;;22.90;11.40;;;6.40;99.90;;;;;;4976210;28;20089;-73
2021/12/12 10:57:36;;;;;;;20.02;10.50;;;6.50;99.90;;;;;;5079958;22;20404;-73
2021/12/12 11:00:32;;;;;;;22.42;11.48;;;6.50;99.90;;;;;;5071509;28;20404;-74
2021/12/12 11:03:09;;;;;;;21.52;11.38;;;6.60;99.90;;;;;;5073858;28;20057;-78
2021/12/12 11:05:47;;;;;;;24.85;11.43;;;6.70;99.90;;;;;;5074533;28;20094;-81
2021/12/12 11:08:22;;;;;;;24.08;11.15;;;6.70;99.90;;;;;;5073808;28;20052;-78
2021/12/12 11:10:49;;;;;;;22.00;10.15;;;6.70;99.90;;;;;;5075270;28;20487;-76
2021/12/12 11:13:19;;;;;;;18.35;10.13;;;6.80;99.90;;;;;;5075164;28;20044;-78
2021/12/12 11:16:13;;;;;;;21.75;11.35;;;6.80;99.90;;;;;;5073799;28;20060;-74
2021/12/12 11:18:55;;;;;;;23.33;10.73;;;6.80;99.90;;;;;;5013149;28;20058;-75
2021/12/12 11:21:32;;;;;;;21.33;10.80;;;7.30;99.90;;;;;;5013078;28;20057;-75
2021/12/12 11:24:07;;;;;;;24.77;11.77;;;6.90;99.90;;;;;;5011844;28;20065;-74
2021/12/12 11:26:42;;;;;;;24.33;11.55;;;7.00;99.90;;;;;;5012870;28;20121;-75
2021/12/12 11:29:21;;;;;;;24.42;12.18;;;7.00;99.90;;;;;;5012884;28;20061;-75
2021/12/12 11:31:49;;;;;;;22.60;10.45;;;7.50;99.90;;;;;;5012812;28;20050;-76
2021/12/12 11:34:16;;;;;;;23.45;11.73;;;7.10;99.90;;;;;;5012587;28;20050;-75
2021/12/12 11:37:05;;;;;;;22.77;10.80;;;7.10;99.90;;;;;;4996699;28;20140;-76
2021/12/12 11:39:35;;;;;;;22.75;11.40;;;7.10;99.90;;;;;;5012120;28;20046;-72
2021/12/12 11:42:11;;;;;;;21.13;11.18;;;7.10;99.90;;;;;;5012424;28;20120;-72
2021/12/12 11:44:49;;;;;;;23.65;11.93;;;7.10;99.90;;;;;;5012599;28;20125;-73
2021/12/12 11:47:41;;;;;;;26.60;11.70;;;7.40;99.90;;;;;;4996094;28;20077;-77
2021/12/12 11:50:14;;;;;;;20.50;10.68;;;7.20;99.90;;;;;;5012395;28;20053;-74
2021/12/12 11:53:03;;;;;;;21.42;10.30;;;7.20;99.90;;;;;;5012440;28;20394;-76
2021/12/12 11:55:37;;;;;;;23.08;11.32;;;7.20;99.90;;;;;;5038566;28;20068;-76
2021/12/12 11:58:29;;;;;;;22.98;10.75;;;7.80;99.90;;;;;;5073845;28;20059;-74
2021/12/12 12:01:18;;;;;;;24.33;12.43;;;7.30;99.90;;;;;;5072192;28;20060;-75
2021/12/12 12:04:28;;;;;;;23.35;10.85;;;7.40;99.90;;;;;;5061844;28;20071;-73
2021/12/12 12:07:11;;;;;;;24.48;11.40;;;7.40;99.90;;;;;;5073915;28;20051;-73
2021/12/12 12:09:37;;;;;;;21.08;9.90;;;7.50;99.90;;;;;;5071553;28;20052;-72
2021/12/12 12:12:08;;;;;;;22.52;11.13;;;7.50;99.90;;;;;;5072049;28;20514;-75
2021/12/12 12:15:01;;;;;;;23.85;10.70;;;7.60;99.90;;;;;;5073933;28;20047;-75
2021/12/12 12:17:54;;;;;;;22.63;10.57;;;7.10;99.90;;;;;;5072755;28;20123;-74
2021/12/12 12:20:28;;;;;;;20.15;10.07;;;7.60;99.90;;;;;;5073416;28;20139;-76
2021/12/12 12:23:43;;;;;;;21.42;10.50;;;7.80;99.90;;;;;;5073679;28;20091;-75
2021/12/12 12:29:25;;;;;;;22.80;10.67;;;7.60;99.90;;;;;;5073366;28;20036;-76
2021/12/12 12:32:12;;;;;;;21.67;10.65;;;7.60;99.90;;;;;;5071455;28;20287;-76
2021/12/12 12:35:00;;;;;;;21.67;10.52;;;7.70;99.90;;;;;;5055256;28;20097;-77
2021/12/12 12:37:52;;;;;;;21.00;10.43;;;7.70;99.90;;;;;;5072721;28;20393;-71
2021/12/12 12:40:46;;;;;;;21.77;10.07;;;7.70;99.90;;;;;;5073520;28;20131;-77
2021/12/12 12:43:49;;;;;;;20.60;9.75;;;7.70;99.90;;;;;;5072812;28;20048;-75
2021/12/12 12:46:52;;;;;;;20.23;9.85;;;7.80;99.90;;;;;;5068581;28;20044;-75
2021/12/12 12:50:09;;;;;;;20.63;10.38;;;7.80;99.90;;;;;;5072583;28;20036;-74
2021/12/12 12:53:04;;;;;;;20.48;9.77;;;7.90;99.90;;;;;;4975545;28;20058;-77
2021/12/12 12:56:02;;;;;;;19.85;10.18;;;7.90;99.90;;;;;;4973518;28;20054;-78
2021/12/12 12:59:01;;;;;;;20.38;9.35;;;7.90;99.90;;;;;;4984276;28;20050;-73
2021/12/12 13:01:42;;;;;;;19.55;9.95;;;8.00;99.90;;;;;;5000388;28;20051;-74
2021/12/12 13:04:32;;;;;;;20.77;9.10;;;8.00;99.90;;;;;;5001782;28;20386;-72
2021/12/12 13:07:25;;;;;;;20.30;9.55;;;8.00;99.90;;;;;;4999958;28;20329;-72
2021/12/12 13:10:00;;;;;;;20.92;9.93;;;8.00;99.90;;;;;;5001717;28;20180;-78
2021/12/12 13:12:37;;;;;;;18.67;9.20;;;8.10;99.90;;;;;;4984168;28;20518;-77
2021/12/12 13:15:03;;;;;;;21.95;9.98;;;8.10;99.90;;;;;;4990987;28;20491;-78
2021/12/12 13:17:29;;;;;;;23.27;10.15;;;8.10;99.90;;;;;;4990979;28;20185;-85
2021/12/12 13:20:26;;;;;;;19.02;9.95;;;8.40;99.90;;;;;;4990678;28;20038;-75
2021/12/12 13:23:10;;;;;;;20.40;10.52;;;8.20;99.90;;;;;;4991087;28;20453;-72
2021/12/12 13:25:43;;;;;;;17.48;8.95;;;8.20;99.90;;;;;;4991131;28;20125;-74
2021/12/12 13:28:30;;;;;;;19.98;9.57;;;8.20;99.90;;;;;;5028757;28;20065;-76
2021/12/12 13:31:27;;;;;;;17.35;8.35;;;8.20;99.90;;;;;;5052448;28;20052;-77
2021/12/12 13:34:13;;;;;;;18.08;9.00;;;8.20;99.90;;;;;;5034515;28;20049;-75